Terminal Aerodrome Forecast
Issued by NWS Goodland, KS

Home | Current Version | Previous Version | Text Only | Print | Product List | Glossary On
Versions: 1 2 3 4 5 6 7 8 9 10 11 12 13 14 15 16 17 18 19 20 21
000
FTUS43 KGLD 231120
TAFGLD
TAF
KGLD 231120Z 2312/2412 VRB05KT P6SM SCT080
     FM231800 18008KT P6SM FEW080
     FM240600 22009KT P6SM FEW150 SCT200
     FM241100 26009KT P6SM FEW150=

USA.gov is the U.S. government's official web portal to all federal, state and local government web resources and services.